Portada
METAR-TAF:

METAR-TAF

Aeroports :

Lucknow, Índia

latitud: 26-45N, longitud: 080-53E, altitud: 122 m

Observació

L'informe es va fer fa 34 minuts, a les 19:00 UTC
Vent 2 kt amb direcció variable
Temperatura 18°C
Humitat 73%
Pressió 1011 hPa
Visibilitat: 3000 m
Núvols disperses a una alçada de 10000 ft
calitja

METAR: VILK 181900Z VRB02KT 3000 HZ SCT100 18/13 Q1011 NOSIG

Hora: 01:04 (19:34 UTC)

Pronòstic

L'informe es va fer fa 2 hores i 34 minuts, a les 17:00 UTC
Pronòstic vàlid del 18 a les 18 UTC al 19 a les 03 UTC
Vent 2 kt amb direcció variable
Visibilitat: 3000 m
calitja
Evolucionant progressivament
l' 18 a les 01 UTC al 18 a les 03 UTC
Visibilitat: 2500 m
calitja

TAF: VILK 181700Z 1818/1903 VRB02KT 3000 HZ NSC BECMG 1801/1803 2500 HZ

Observacions i pronòstics meteorològics de més de 4000 aeroports (METAR i TAF).

Les estacions disponibles són els punts grocs i vermells al mapa.

Posi el ratolí al punt desitjat per veure el nom de l'estació.

Feu clic per veure les observacions i els pronòstics meteorològics.

Per canviar el mapa: feu clic els botons verds amb una creu de color negre per apropar; al botó verd amb un guió per allunyar la imatge; o en les fletxes verdes per a mapes adjacents.


METAR-TAF: